Eckerman, Michigan
Current Conditions -  °F | °C
As of 1:34 AM on Thursday 23 Oct 2014 (Local Time) from KERY Reporting Station
Clear Clear  
Wind Chill: 26°   Ceiling: Unl
Heat Index: 32°   Visibility: 10mi
Dew Point: 32°   Wind: 7mph
Humidity: 99%   Direction: 190°S
Pressure: 30.25"   Gusts: NA
Location:  46.37°N, 85.04°W
Report Text: KERY 230534Z AUTO 19006KT 10SM CLR 00/00 A3025 RMK AO2 T00001001
Loading
Personal Weather Stations






























Interactive Weather Map
Tropical Storm Tracking
New forecast layout! Learn more

10-Day Weather Forecast

Advertisements
Track Severe Weather on mobile